createdAt,value
2022-09-01T00:00:52.135Z,1.20
2022-09-01T00:03:24.298Z,1.17
2022-09-01T00:05:58.881Z,1.00
2022-09-01T00:08:31.062Z,1.50
2022-09-01T00:11:03.288Z,1.48
2022-09-01T00:13:35.325Z,1.30
2022-09-01T00:16:07.618Z,1.40
2022-09-01T00:18:42.307Z,1.30
2022-09-01T00:21:14.322Z,1.30
2022-09-01T00:23:47.007Z,1.40
2022-09-01T00:26:19.750Z,1.23
2022-09-01T00:28:51.951Z,1.30
2022-09-01T00:31:25.002Z,1.30
2022-09-01T00:33:57.116Z,1.00
2022-09-01T00:36:29.364Z,1.20
2022-09-01T00:39:02.470Z,1.25
2022-09-01T00:41:38.789Z,1.10
2022-09-01T00:44:15.968Z,1.40
2022-09-01T00:46:55.149Z,1.35
2022-09-01T00:49:43.848Z,1.20
2022-09-01T00:52:38.821Z,1.10
2022-09-01T00:55:26.277Z,1.33
2022-09-01T00:58:00.659Z,1.10
2022-09-01T01:00:40.978Z,1.30
2022-09-01T01:03:14.699Z,1.00
2022-09-01T01:05:58.338Z,1.13
2022-09-01T01:08:37.890Z,1.10
2022-09-01T01:11:19.706Z,1.10
2022-09-01T01:13:57.564Z,1.10
2022-09-01T01:16:29.863Z,1.10
2022-09-01T01:19:02.283Z,1.15
2022-09-01T01:21:58.955Z,1.33
2022-09-01T01:24:35.297Z,1.17
2022-09-01T01:27:07.297Z,1.08
2022-09-01T01:29:40.016Z,1.10
2022-09-01T01:32:13.146Z,1.33
2022-09-01T01:34:48.690Z,1.27
2022-09-01T01:37:25.535Z,1.20
2022-09-01T01:39:57.728Z,1.40
2022-09-01T01:42:30.204Z,0.95
2022-09-01T01:45:03.363Z,1.27
2022-09-01T01:47:35.363Z,1.40
2022-09-01T01:50:09.536Z,1.80
2022-09-01T01:52:45.542Z,1.35
2022-09-01T01:55:27.754Z,1.30
2022-09-01T01:58:01.206Z,1.35
2022-09-01T02:00:34.678Z,1.65
2022-09-01T02:03:07.660Z,1.35
2022-09-01T02:05:40.624Z,1.17
2022-09-01T02:08:15.792Z,1.48
2022-09-01T02:10:51.864Z,1.00
2022-09-01T02:13:31.311Z,1.55
2022-09-01T02:16:13.649Z,1.50
2022-09-01T02:18:49.987Z,1.50
2022-09-01T02:21:25.043Z,1.70
2022-09-01T02:24:02.357Z,1.63
2022-09-01T02:26:39.652Z,1.55
2022-09-01T02:29:19.201Z,1.00
2022-09-01T02:31:53.554Z,1.30
2022-09-01T02:34:29.044Z,1.23
2022-09-01T02:37:01.082Z,1.67
2022-09-01T02:39:33.754Z,1.48
2022-09-01T02:42:05.967Z,1.30
2022-09-01T02:44:41.470Z,1.60
2022-09-01T02:47:13.741Z,1.50
2022-09-01T02:49:46.832Z,1.55
2022-09-01T02:52:20.811Z,1.30
2022-09-01T02:54:53.985Z,1.55
2022-09-01T02:57:25.947Z,1.45
2022-09-01T02:59:58.966Z,1.70
2022-09-01T03:02:31.627Z,1.42
2022-09-01T03:05:03.851Z,1.30
2022-09-01T03:07:36.405Z,1.70
2022-09-01T03:10:09.851Z,1.67
2022-09-01T03:12:41.779Z,1.23
2022-09-01T03:15:13.800Z,1.77
2022-09-01T03:17:45.858Z,1.30
2022-09-01T03:20:19.613Z,1.42
2022-09-01T03:22:52.710Z,1.45
2022-09-01T03:25:26.023Z,1.60
2022-09-01T03:28:03.284Z,1.52
2022-09-01T03:30:40.191Z,1.20
2022-09-01T03:33:12.278Z,1.33
2022-09-01T03:35:45.654Z,1.30
2022-09-01T03:38:22.087Z,1.70
2022-09-01T03:41:03.114Z,1.58
2022-09-01T03:43:35.980Z,1.75
2022-09-01T03:46:10.145Z,1.42
2022-09-01T03:48:43.165Z,1.08
2022-09-01T03:51:15.324Z,1.58
2022-09-01T03:53:47.480Z,1.98
2022-09-01T03:56:19.902Z,1.90
2022-09-01T03:58:52.967Z,1.52
2022-09-01T04:01:33.803Z,1.60
2022-09-01T04:04:06.774Z,1.85
2022-09-01T04:06:38.818Z,1.48
2022-09-01T04:09:11.182Z,1.45
2022-09-01T04:11:46.462Z,1.58
2022-09-01T04:14:18.749Z,1.60
2022-09-01T04:17:09.151Z,1.50
2022-09-01T04:19:42.379Z,8.23
2022-09-01T04:22:15.785Z,3.00
2022-09-01T04:24:47.737Z,1.70
2022-09-01T04:27:21.700Z,1.75
2022-09-01T04:29:57.426Z,1.73
2022-09-01T04:32:29.694Z,2.28
2022-09-01T04:35:02.250Z,1.70
2022-09-01T04:37:36.591Z,1.65
2022-09-01T04:40:10.156Z,1.85
2022-09-01T04:42:43.007Z,1.58
2022-09-01T04:45:20.444Z,1.77
2022-09-01T04:47:52.691Z,1.70
2022-09-01T04:50:30.879Z,1.80
2022-09-01T04:53:06.957Z,1.70
2022-09-01T04:55:44.280Z,1.90
2022-09-01T04:58:18.729Z,2.13
2022-09-01T05:00:55.585Z,1.90
2022-09-01T05:03:28.228Z,1.67
2022-09-01T05:06:02.581Z,1.63
2022-09-01T05:08:35.487Z,1.73
2022-09-01T05:11:09.370Z,1.70
2022-09-01T05:13:41.496Z,1.83
2022-09-01T05:16:25.212Z,3.22
2022-09-01T05:18:58.093Z,2.72
2022-09-01T05:21:30.146Z,1.60
2022-09-01T05:24:05.125Z,2.45
2022-09-01T05:26:40.994Z,1.80
2022-09-01T05:29:16.069Z,1.90
2022-09-01T05:31:50.410Z,1.70
2022-09-01T05:34:27.191Z,2.53
2022-09-01T05:37:00.270Z,1.70
2022-09-01T05:39:33.028Z,1.80
2022-09-01T05:42:08.491Z,1.75
2022-09-01T05:44:44.328Z,1.88
2022-09-01T05:47:20.809Z,2.08
2022-09-01T05:49:53.908Z,4.70
2022-09-01T05:52:26.513Z,1.77
2022-09-01T05:55:00.195Z,1.58
2022-09-01T05:57:35.403Z,1.40
2022-09-01T06:00:13.571Z,1.92
2022-09-01T06:02:45.651Z,1.58
2022-09-01T06:05:17.766Z,1.60
2022-09-01T06:07:51.058Z,1.55
2022-09-01T06:10:23.732Z,1.60
2022-09-01T06:12:55.692Z,1.70
2022-09-01T06:15:29.626Z,1.80
2022-09-01T06:18:02.819Z,1.73
2022-09-01T06:20:39.491Z,1.58
2022-09-01T06:23:15.398Z,1.50
2022-09-01T06:25:48.112Z,1.30
2022-09-01T06:28:21.371Z,1.40
2022-09-01T06:30:53.782Z,1.17
2022-09-01T06:33:25.929Z,1.50
2022-09-01T06:36:02.335Z,1.55
2022-09-01T06:38:34.387Z,1.58
2022-09-01T06:41:09.876Z,1.50
2022-09-01T06:43:42.625Z,0.95
2022-09-01T06:46:14.776Z,1.60
2022-09-01T06:48:48.125Z,1.30
2022-09-01T06:51:22.693Z,1.20
2022-09-01T06:54:02.400Z,1.17
2022-09-01T06:56:37.122Z,1.60
2022-09-01T06:59:34.856Z,1.20
2022-09-01T07:02:13.939Z,1.75
2022-09-01T07:04:50.046Z,1.00
2022-09-01T07:10:21.428Z,1.50
2022-09-01T07:13:08.945Z,1.45
2022-09-01T07:18:35.293Z,1.30
2022-09-01T07:21:36.296Z,1.20
2022-09-01T07:24:08.555Z,1.33
2022-09-01T07:26:47.287Z,1.10
2022-09-01T07:29:35.421Z,0.90
2022-09-01T07:35:01.020Z,1.00
2022-09-01T07:43:33.423Z,1.02
2022-09-01T07:49:03.232Z,1.33
2022-09-01T07:51:55.219Z,1.00
2022-09-01T07:54:27.658Z,1.10
2022-09-01T07:56:59.865Z,0.80
2022-09-01T07:59:33.479Z,0.90
2022-09-01T08:02:06.683Z,1.05
2022-09-01T08:04:40.061Z,0.82
2022-09-01T08:07:19.010Z,0.80
2022-09-01T08:09:56.011Z,0.90
2022-09-01T08:12:33.709Z,0.70
2022-09-01T08:15:13.052Z,0.60
2022-09-01T08:17:53.736Z,0.70
2022-09-01T08:20:25.925Z,0.63
2022-09-01T08:22:57.879Z,0.50
2022-09-01T08:25:32.066Z,0.65
2022-09-01T08:28:04.840Z,0.68
2022-09-01T08:30:40.703Z,0.30
2022-09-01T08:33:13.979Z,0.55
2022-09-01T08:35:49.439Z,0.40
2022-09-01T08:38:21.590Z,0.43
2022-09-01T08:41:05.312Z,0.40
2022-09-01T08:43:49.297Z,0.60
2022-09-01T08:46:35.175Z,0.52
2022-09-01T08:49:31.355Z,0.50
2022-09-01T08:52:31.830Z,0.73
2022-09-01T08:55:38.599Z,0.40
2022-09-01T08:58:15.959Z,0.75
2022-09-01T09:00:57.971Z,0.50
2022-09-01T09:04:07.092Z,0.30
2022-09-01T09:07:13.579Z,0.20
2022-09-01T09:09:58.359Z,0.38
2022-09-01T09:13:01.487Z,0.40
2022-09-01T09:16:07.265Z,0.40
2022-09-01T09:18:58.035Z,0.40
2022-09-01T09:21:41.684Z,0.20
2022-09-01T09:24:50.299Z,0.38
2022-09-01T09:27:38.255Z,0.60
2022-09-01T09:30:20.105Z,0.35
2022-09-01T09:33:47.823Z,0.30
2022-09-01T09:36:29.799Z,0.30
2022-09-01T09:39:16.671Z,0.25
2022-09-01T09:42:21.358Z,0.35
2022-09-01T09:44:57.566Z,0.20
2022-09-01T09:47:44.661Z,0.20
2022-09-01T09:50:27.440Z,0.30
2022-09-01T09:53:29.964Z,0.30
2022-09-01T09:56:26.379Z,0.20
2022-09-01T09:58:58.525Z,0.20
2022-09-01T10:01:31.832Z,0.40
2022-09-01T10:04:04.373Z,0.20
2022-09-01T10:06:47.126Z,0.30
2022-09-01T10:09:22.092Z,0.32
2022-09-01T10:11:59.039Z,0.30
2022-09-01T10:14:55.909Z,0.20
2022-09-01T10:17:37.335Z,0.22
2022-09-01T10:20:21.584Z,0.40
2022-09-01T10:22:54.091Z,0.20
2022-09-01T10:25:32.447Z,0.20
2022-09-01T10:28:24.306Z,0.20
2022-09-01T10:30:58.591Z,0.20
2022-09-01T10:33:30.628Z,0.10
2022-09-01T10:36:06.846Z,0.20
2022-09-01T10:38:40.103Z,0.20
2022-09-01T10:41:59.844Z,0.40
2022-09-01T10:44:59.258Z,0.10
2022-09-01T10:47:34.259Z,0.20
2022-09-01T10:50:35.471Z,0.13
2022-09-01T10:53:08.211Z,0.63
2022-09-01T10:56:02.720Z,0.10
2022-09-01T11:02:26.701Z,0.40
2022-09-01T11:05:00.355Z,0.30
2022-09-01T11:08:00.105Z,0.70
2022-09-01T11:10:42.009Z,0.25
2022-09-01T11:13:47.609Z,0.65
2022-09-01T11:16:51.399Z,0.30
2022-09-01T11:19:38.406Z,0.15
2022-09-01T11:22:13.342Z,0.17
2022-09-01T11:25:12.322Z,0.30
2022-09-01T11:27:50.741Z,0.25
2022-09-01T11:30:37.248Z,0.10
2022-09-01T11:33:57.648Z,0.15
2022-09-01T11:37:00.475Z,0.30
2022-09-01T11:40:04.018Z,0.22
2022-09-01T11:42:46.879Z,0.20
2022-09-01T11:45:22.125Z,0.40
2022-09-01T11:48:08.871Z,0.20
2022-09-01T11:50:42.710Z,0.20
2022-09-01T11:53:22.351Z,0.30
2022-09-01T11:56:20.444Z,0.35
2022-09-01T11:58:52.526Z,0.30
2022-09-01T12:01:30.177Z,0.40
2022-09-01T12:04:32.049Z,0.30
2022-09-01T12:07:12.687Z,0.20
2022-09-01T12:09:48.128Z,0.40
2022-09-01T12:12:46.981Z,0.55
2022-09-01T12:15:25.028Z,0.30
2022-09-01T12:18:22.165Z,0.35
2022-09-01T12:20:58.582Z,0.57
2022-09-01T12:23:40.429Z,0.40
2022-09-01T12:26:18.524Z,0.30
2022-09-01T12:28:51.033Z,0.50
2022-09-01T12:31:26.378Z,0.35
2022-09-01T12:33:58.560Z,0.22
2022-09-01T12:36:35.959Z,0.38
2022-09-01T12:39:23.115Z,0.40
2022-09-01T12:42:41.056Z,0.28
2022-09-01T12:45:47.081Z,0.28
2022-09-01T12:48:33.785Z,0.10
2022-09-01T12:51:18.562Z,0.20
2022-09-01T12:53:58.883Z,0.40
2022-09-01T12:56:38.065Z,0.32
2022-09-01T12:59:17.176Z,0.80
2022-09-01T13:01:50.970Z,0.20
2022-09-01T13:04:31.070Z,0.30
2022-09-01T13:07:06.920Z,0.20
2022-09-01T13:09:47.987Z,0.38
2022-09-01T13:12:21.725Z,0.32
2022-09-01T13:14:53.715Z,0.45
2022-09-01T13:17:26.355Z,0.43
2022-09-01T13:19:58.647Z,1.80
2022-09-01T13:22:30.715Z,0.77
2022-09-01T13:25:03.223Z,1.10
2022-09-01T13:27:35.181Z,0.82
2022-09-01T13:30:07.917Z,0.45
2022-09-01T13:33:18.886Z,0.60
2022-09-01T13:35:32.438Z,1.00
2022-09-01T13:38:04.487Z,0.60
2022-09-01T13:40:36.866Z,0.50
2022-09-01T13:43:08.860Z,0.90
2022-09-01T13:45:42.043Z,4.38
2022-09-01T13:48:16.482Z,1.30
2022-09-01T13:53:43.081Z,0.70
2022-09-01T13:56:15.089Z,0.85
2022-09-01T13:58:48.763Z,0.70
2022-09-01T14:01:23.477Z,0.70
2022-09-01T14:04:00.128Z,0.35
2022-09-01T14:06:33.281Z,0.40
2022-09-01T14:09:05.415Z,0.60
2022-09-01T14:11:37.847Z,0.93
2022-09-01T14:14:09.827Z,0.75
2022-09-01T14:16:41.866Z,0.57
2022-09-01T14:19:13.985Z,0.60
2022-09-01T14:21:47.449Z,0.75
2022-09-01T14:24:20.975Z,0.50
2022-09-01T14:26:53.005Z,0.95
2022-09-01T14:29:25.598Z,0.40
2022-09-01T14:31:57.802Z,0.50
2022-09-01T14:34:31.033Z,0.50
2022-09-01T14:37:04.311Z,0.88
2022-09-01T14:39:36.296Z,1.75
2022-09-01T14:42:10.247Z,0.40
2022-09-01T14:44:43.680Z,0.40
2022-09-01T14:47:18.253Z,0.30
2022-09-01T14:49:55.454Z,0.90
2022-09-01T14:52:27.530Z,0.47
2022-09-01T14:55:02.262Z,0.70
2022-09-01T14:57:37.710Z,0.88
2022-09-01T15:00:12.552Z,0.57
2022-09-01T15:02:45.465Z,0.50
2022-09-01T15:05:18.021Z,0.47
2022-09-01T15:07:51.097Z,0.22
2022-09-01T15:10:26.327Z,0.60
2022-09-01T15:13:01.066Z,0.60
2022-09-01T15:15:33.299Z,0.60
2022-09-01T15:18:11.238Z,0.90
2022-09-01T15:20:46.527Z,0.60
2022-09-01T15:23:23.582Z,0.50
2022-09-01T15:25:57.984Z,0.40
2022-09-01T15:28:30.181Z,1.08
2022-09-01T15:31:02.274Z,0.50
2022-09-01T15:33:34.370Z,0.60
2022-09-01T15:36:16.984Z,0.45
2022-09-01T15:38:49.554Z,0.50
2022-09-01T15:41:28.716Z,0.60
2022-09-01T15:44:05.923Z,0.60
2022-09-01T15:46:39.294Z,0.40
2022-09-01T15:49:12.215Z,0.45
2022-09-01T15:51:45.684Z,0.40
2022-09-01T15:54:21.461Z,0.60
2022-09-01T15:56:53.459Z,1.05
2022-09-01T15:59:25.555Z,0.90
2022-09-01T16:01:58.690Z,0.75
2022-09-01T16:04:31.663Z,0.88
2022-09-01T16:07:04.478Z,0.80
2022-09-01T16:09:37.418Z,0.50
2022-09-01T16:12:09.960Z,0.73
2022-09-01T16:14:44.621Z,0.55
2022-09-01T16:17:23.810Z,0.50
2022-09-01T16:20:24.724Z,0.63
2022-09-01T16:23:08.891Z,0.50
2022-09-01T16:25:41.627Z,0.65
2022-09-01T16:28:36.128Z,0.60
2022-09-01T16:31:18.155Z,0.75
2022-09-01T16:33:57.678Z,0.68
2022-09-01T16:36:49.542Z,0.90
2022-09-01T16:39:34.118Z,0.80
2022-09-01T16:42:39.085Z,0.52
2022-09-01T16:45:42.761Z,0.55
2022-09-01T16:48:52.927Z,0.68
2022-09-01T16:51:35.288Z,0.70
2022-09-01T16:54:30.714Z,0.40
2022-09-01T16:57:14.865Z,0.63
2022-09-01T16:59:55.682Z,0.60
2022-09-01T17:02:51.070Z,0.98
2022-09-01T17:05:32.116Z,0.57
2022-09-01T17:08:16.925Z,0.70
2022-09-01T17:11:10.459Z,0.70
2022-09-01T17:13:52.282Z,0.80
2022-09-01T17:16:37.343Z,0.70
2022-09-01T17:19:16.781Z,0.70
2022-09-01T17:21:56.265Z,0.98
2022-09-01T17:24:43.502Z,0.95
2022-09-01T17:27:37.242Z,2.15
2022-09-01T17:30:09.864Z,0.93
2022-09-01T17:33:17.631Z,1.90
2022-09-01T17:36:48.114Z,1.23
2022-09-01T17:39:36.553Z,1.08
2022-09-01T17:42:38.619Z,1.00
2022-09-01T17:45:29.186Z,1.10
2022-09-01T17:48:15.289Z,1.40
2022-09-01T17:51:18.127Z,0.98
2022-09-01T17:54:34.889Z,1.10
2022-09-01T17:57:29.894Z,0.60
2022-09-01T18:00:24.773Z,0.85
2022-09-01T18:03:19.338Z,1.08
2022-09-01T18:06:32.684Z,1.00
2022-09-01T18:09:07.202Z,1.10
2022-09-01T18:12:02.385Z,0.75
2022-09-01T18:15:05.016Z,1.25
2022-09-01T18:17:51.024Z,1.02
2022-09-01T18:20:50.703Z,0.80
2022-09-01T18:23:22.782Z,1.33
2022-09-01T18:26:04.032Z,1.10
2022-09-01T18:28:36.688Z,1.58
2022-09-01T18:31:30.175Z,1.10
2022-09-01T18:34:46.951Z,1.60
2022-09-01T18:38:09.263Z,1.27
2022-09-01T18:41:12.346Z,1.23
2022-09-01T18:44:16.843Z,0.98
2022-09-01T18:47:01.804Z,0.98
2022-09-01T18:50:02.983Z,1.20
2022-09-01T18:52:43.376Z,0.80
2022-09-01T18:58:06.302Z,4.55
2022-09-01T19:03:53.938Z,1.88
2022-09-01T19:06:46.991Z,1.38
2022-09-01T19:09:45.147Z,2.45
2022-09-01T19:12:42.043Z,1.77
2022-09-01T19:15:43.112Z,1.40
2022-09-01T19:18:43.122Z,1.27
2022-09-01T19:21:28.267Z,1.27
2022-09-01T19:24:14.478Z,1.27
2022-09-01T19:26:51.531Z,0.90
2022-09-01T19:29:52.457Z,1.48
2022-09-01T19:32:29.855Z,1.30
2022-09-01T19:35:13.859Z,1.13
2022-09-01T19:37:50.750Z,1.10
2022-09-01T19:40:30.809Z,1.00
2022-09-01T19:43:11.653Z,1.10
2022-09-01T19:46:09.806Z,1.30
2022-09-01T19:48:58.314Z,1.15
2022-09-01T19:52:16.183Z,1.17
2022-09-01T19:55:07.396Z,1.08
2022-09-01T19:58:02.261Z,1.10
2022-09-01T20:00:52.654Z,1.42
2022-09-01T20:06:42.700Z,1.23
2022-09-01T20:09:23.461Z,1.20
2022-09-01T20:12:45.130Z,1.17
2022-09-01T20:15:48.481Z,1.38
2022-09-01T20:18:40.706Z,1.10
2022-09-01T20:21:18.924Z,1.13
2022-09-01T20:24:01.121Z,0.95
2022-09-01T20:26:45.156Z,1.00
2022-09-01T20:29:49.755Z,0.98
2022-09-01T20:33:00.257Z,1.10
2022-09-01T20:36:11.584Z,1.00
2022-09-01T20:39:23.470Z,1.42
2022-09-01T20:42:10.278Z,1.13
2022-09-01T20:44:55.872Z,0.90
2022-09-01T20:47:31.515Z,1.30
2022-09-01T20:50:12.686Z,0.98
2022-09-01T20:53:43.865Z,1.02
2022-09-01T20:56:43.266Z,0.90
2022-09-01T20:59:59.525Z,0.63
2022-09-01T21:03:07.691Z,1.00
2022-09-01T21:06:26.119Z,1.17
2022-09-01T21:09:11.997Z,1.40
2022-09-01T21:12:14.988Z,0.90
2022-09-01T21:15:07.899Z,1.08
2022-09-01T21:18:33.267Z,1.00
2022-09-01T21:21:13.797Z,0.80
2022-09-01T21:23:45.730Z,0.90
2022-09-01T21:26:17.877Z,1.00
2022-09-01T21:28:55.383Z,1.40
2022-09-01T21:31:27.494Z,1.05
2022-09-01T21:33:59.542Z,0.88
2022-09-01T21:36:31.502Z,0.80
2022-09-01T21:39:03.863Z,1.83
2022-09-01T21:41:35.988Z,1.08
2022-09-01T21:44:08.595Z,0.88
2022-09-01T21:46:40.637Z,1.20
2022-09-01T21:49:14.285Z,0.90
2022-09-01T21:51:46.337Z,0.93
2022-09-01T21:54:18.313Z,1.23
2022-09-01T21:56:53.462Z,1.08
2022-09-01T21:59:25.734Z,0.90
2022-09-01T22:01:57.862Z,0.90
2022-09-01T22:04:29.872Z,0.90
2022-09-01T22:07:01.881Z,0.90
2022-09-01T22:09:34.125Z,0.90
2022-09-01T22:12:06.749Z,0.80
2022-09-01T22:14:38.936Z,0.70
2022-09-01T22:17:11.066Z,0.82
2022-09-01T22:19:43.187Z,1.13
2022-09-01T22:22:17.070Z,0.90
2022-09-01T22:24:49.131Z,1.00
2022-09-01T22:27:21.364Z,1.13
2022-09-01T22:29:53.453Z,1.00
2022-09-01T22:32:28.724Z,0.90
2022-09-01T22:35:06.528Z,0.82
2022-09-01T22:37:39.383Z,0.60
2022-09-01T22:40:13.154Z,0.90
2022-09-01T22:42:45.448Z,1.05
2022-09-01T22:45:17.617Z,0.88
2022-09-01T22:47:49.660Z,0.70
2022-09-01T22:50:21.641Z,0.90
2022-09-01T22:52:53.701Z,0.90
2022-09-01T22:55:26.890Z,1.00
2022-09-01T22:57:58.979Z,0.90
2022-09-01T23:00:30.990Z,0.90
2022-09-01T23:03:04.248Z,1.10
2022-09-01T23:05:36.398Z,1.10
2022-09-01T23:08:09.897Z,0.80
2022-09-01T23:10:42.133Z,1.00
2022-09-01T23:13:14.193Z,1.00
2022-09-01T23:15:46.625Z,0.73
2022-09-01T23:18:19.611Z,0.80
2022-09-01T23:20:51.961Z,0.63
2022-09-01T23:23:24.023Z,1.27
2022-09-01T23:25:56.309Z,1.13
2022-09-01T23:28:28.933Z,1.10
2022-09-01T23:31:01.460Z,2.10
2022-09-01T23:33:33.623Z,0.82
2022-09-01T23:36:09.990Z,0.70
2022-09-01T23:38:42.788Z,1.10
2022-09-01T23:41:27.128Z,0.70
2022-09-01T23:44:03.585Z,0.80
2022-09-01T23:46:43.144Z,1.10
2022-09-01T23:49:17.583Z,0.83
2022-09-01T23:51:53.103Z,0.85
2022-09-01T23:54:25.230Z,1.00
2022-09-01T23:56:57.512Z,1.00
2022-09-01T23:59:30.732Z,1.17
